Time;durP1;ratioP1;P1;durP2;ratioP2;P2;SDS_P1;SDS_P2;PMS_P1;PMS_P2;Temp;Humidity;BMP_temperature;BMP_pressure;BME280_temperature;BME280_humidity;BME280_pressure;Samples;Min_cycle;Max_cycle;Signal;HPM_P1;HPM_P2
2024/03/19 00:01:10;;;;;;;;;;;;;;;9.02;65.10;95899.56;7396477;19;1090;-70
2024/03/19 00:03:38;;;;;;;;;;;;;;;9.12;65.16;95899.19;7396415;19;1070;-68
2024/03/19 00:06:07;;;;;;;;;;;;;;;9.14;64.84;95894.72;7396311;19;1076;-67
2024/03/19 00:08:35;;;;;;;;;;;;;;;9.08;64.42;95896.69;7394372;19;1853;-72
2024/03/19 00:11:04;;;;;;;;;;;;;;;9.00;64.24;95888.31;7394815;19;1714;-65
2024/03/19 00:13:32;;;;;;;;;;;;;;;9.04;64.79;95896.88;7395500;19;1370;-67
2024/03/19 00:16:01;;;;;;;;;;;;;;;8.98;64.92;95893.59;7395523;19;1097;-65
2024/03/19 00:18:32;;;;;;;;;;;;;;;9.00;65.19;95896.16;7395492;19;1061;-62
2024/03/19 00:21:01;;;;;;;;;;;;;;;9.08;64.64;95896.69;7395305;19;1045;-68
2024/03/19 00:23:29;;;;;;;;;;;;;;;9.13;64.37;95900.84;7395783;19;1021;-67
2024/03/19 00:25:58;;;;;;;;;;;;;;;9.16;64.13;95900.72;7395548;19;876;-68
2024/03/19 00:28:26;;;;;;;;;;;;;;;9.13;64.00;95899.09;7394096;19;1853;-68
2024/03/19 00:30:55;;;;;;;;;;;;;;;9.12;64.13;95897.41;7394986;19;1049;-70
2024/03/19 00:33:23;;;;;;;;;;;;;;;9.14;64.44;95890.34;7395036;19;1041;-70
2024/03/19 00:35:55;;;;;;;;;;;;;;;9.16;64.96;95891.16;7395287;19;1049;-68
2024/03/19 00:38:24;;;;;;;;;;;;;;;9.15;65.04;95886.81;7394801;19;1117;-74
2024/03/19 00:40:53;;;;;;;;;;;;;;;9.17;65.09;95885.00;7395103;19;961;-70
2024/03/19 00:43:22;;;;;;;;;;;;;;;9.19;65.35;95880.59;7395177;19;1036;-71
2024/03/19 00:45:51;;;;;;;;;;;;;;;9.22;65.93;95880.44;7394594;19;1054;-68
2024/03/19 00:48:19;;;;;;;;;;;;;;;9.27;65.74;95879.41;7393524;19;1873;-68
2024/03/19 00:50:48;;;;;;;;;;;;;;;9.23;64.70;95871.69;7394664;19;1844;-71
2024/03/19 00:53:19;;;;;;;;;;;;;;;9.17;64.73;95873.72;7394243;19;1041;-67
2024/03/19 00:55:47;;;;;;;;;;;;;;;9.15;65.22;95862.50;7394807;19;1024;-69
2024/03/19 00:58:18;;;;;;;;;;;;;;;9.18;65.90;95867.59;7394833;19;1037;-69
2024/03/19 01:00:46;;;;;;;;;;;;;;;9.21;66.76;95864.84;7394587;19;976;-69
2024/03/19 01:03:15;;;;;;;;;;;;;;;9.20;66.67;95865.75;7394166;19;1222;-71
2024/03/19 01:05:43;;;;;;;;;;;;;;;9.18;66.85;95868.44;7394085;19;1120;-70
2024/03/19 01:08:13;;;;;;;;;;;;;;;9.21;67.25;95868.31;7393212;19;1839;-67
2024/03/19 01:10:44;;;;;;;;;;;;;;;9.25;67.75;95861.19;7393493;19;1112;-65
2024/03/19 01:13:13;;;;;;;;;;;;;;;9.23;67.66;95852.56;7394010;19;1127;-71
2024/03/19 01:15:42;;;;;;;;;;;;;;;9.20;68.01;95855.31;7393871;19;1017;-69
2024/03/19 01:18:10;;;;;;;;;;;;;;;9.20;68.00;95855.31;7394319;19;1046;-65
2024/03/19 01:20:39;;;;;;;;;;;;;;;9.15;67.96;95858.13;7394152;19;988;-72
2024/03/19 01:23:07;;;;;;;;;;;;;;;9.19;67.74;95848.41;7394295;19;1014;-67
2024/03/19 01:25:36;;;;;;;;;;;;;;;9.18;67.65;95851.94;7394081;19;1151;-71
2024/03/19 01:28:07;;;;;;;;;;;;;;;9.18;68.14;95850.16;7392892;19;1839;-67
2024/03/19 01:30:35;;;;;;;;;;;;;;;9.19;67.93;95851.03;7393455;19;1106;-68
2024/03/19 01:33:04;;;;;;;;;;;;;;;9.10;67.94;95849.66;7393887;19;1903;-71
2024/03/19 01:35:33;;;;;;;;;;;;;;;9.05;67.96;95841.16;7393773;19;1043;-67
2024/03/19 01:38:01;;;;;;;;;;;;;;;8.95;68.69;95841.59;7393721;19;1083;-69
2024/03/19 01:40:30;;;;;;;;;;;;;;;8.96;68.63;95831.97;7393147;19;1038;-72
2024/03/19 01:42:58;;;;;;;;;;;;;;;9.02;69.28;95836.94;7393596;19;996;-61
2024/03/19 01:45:29;;;;;;;;;;;;;;;9.07;69.37;95839.34;7393324;19;1809;-69
2024/03/19 01:47:58;;;;;;;;;;;;;;;9.06;69.76;95838.50;7392377;19;1834;-68
2024/03/19 01:50:26;;;;;;;;;;;;;;;9.10;69.21;95837.44;7393445;19;1022;-66
2024/03/19 01:52:55;;;;;;;;;;;;;;;9.13;69.03;95838.25;7393389;19;1022;-71
2024/03/19 01:55:25;;;;;;;;;;;;;;;9.15;68.90;95837.25;7392760;19;1025;-69
2024/03/19 01:57:54;;;;;;;;;;;;;;;9.14;68.50;95840.78;7392707;19;1116;-70
2024/03/19 02:00:22;;;;;;;;;;;;;;;9.10;68.94;95841.84;7392688;19;1124;-68
2024/03/19 02:02:54;;;;;;;;;;;;;;;9.04;69.28;95839.50;7392603;19;1037;-67
2024/03/19 02:05:23;;;;;;;;;;;;;;;8.94;69.58;95837.25;7399259;19;961;-66
2024/03/19 02:07:51;;;;;;;;;;;;;;;8.94;69.79;95839.03;7399313;19;1918;-64
2024/03/19 02:10:21;;;;;;;;;;;;;;;8.94;70.44;95839.03;7399390;19;1902;-70
2024/03/19 02:12:49;;;;;;;;;;;;;;;8.98;70.06;95835.38;7399570;19;1022;-64
2024/03/19 02:15:19;;;;;;;;;;;;;;;8.98;69.87;95838.00;7399479;19;1069;-68
2024/03/19 02:17:47;;;;;;;;;;;;;;;8.96;69.85;95842.41;7399513;19;919;-67
2024/03/19 02:20:19;;;;;;;;;;;;;;;8.97;69.87;95833.66;7399742;19;1826;-69
2024/03/19 02:22:50;;;;;;;;;;;;;;;9.00;70.10;95840.53;7399265;19;1240;-71
2024/03/19 02:25:19;;;;;;;;;;;;;;;9.03;69.86;95835.19;7399240;19;1061;-69
2024/03/19 02:27:47;;;;;;;;;;;;;;;9.04;70.15;95836.88;7398831;19;1833;-68
2024/03/19 02:30:16;;;;;;;;;;;;;;;9.05;69.92;95841.16;7399379;19;1822;-69
2024/03/19 02:32:44;;;;;;;;;;;;;;;9.06;69.65;95837.66;7399423;19;1844;-68
2024/03/19 02:35:13;;;;;;;;;;;;;;;9.05;69.56;95838.56;7399386;19;1823;-70
2024/03/19 02:37:41;;;;;;;;;;;;;;;9.04;69.21;95840.34;7398907;19;1045;-68
2024/03/19 02:40:13;;;;;;;;;;;;;;;9.04;69.11;95836.88;7399049;19;972;-72
2024/03/19 02:42:41;;;;;;;;;;;;;;;8.99;68.86;95839.69;7399280;19;947;-69
2024/03/19 02:45:10;;;;;;;;;;;;;;;8.91;68.92;95837.41;7398878;19;1653;-67
2024/03/19 02:47:39;;;;;;;;;;;;;;;8.90;68.73;95842.66;7398907;19;1020;-72
2024/03/19 02:50:08;;;;;;;;;;;;;;;8.82;68.69;95837.81;7398848;19;1068;-68
2024/03/19 02:52:36;;;;;;;;;;;;;;;8.76;68.72;95846.72;7398561;19;1811;-71
2024/03/19 02:55:05;;;;;;;;;;;;;;;8.68;68.43;95848.81;7398419;19;1641;-68
2024/03/19 02:57:36;;;;;;;;;;;;;;;8.57;68.81;95849.22;7398455;19;1816;-68
2024/03/19 03:00:09;;;;;;;;;;;;;;;8.59;69.03;95850.91;7398112;19;1057;-69
2024/03/19 03:02:37;;;;;;;;;;;;;;;8.56;68.91;95848.41;7398479;19;983;-67
2024/03/19 03:05:06;;;;;;;;;;;;;;;8.50;68.63;95855.59;7397953;19;1997;-74
2024/03/19 03:07:35;;;;;;;;;;;;;;;8.45;68.95;95854.00;7398381;19;1063;-70
2024/03/19 03:10:03;;;;;;;;;;;;;;;8.28;68.63;95846.03;7395749;19;1845;-68
2024/03/19 03:12:32;;;;;;;;;;;;;;;8.15;69.03;95846.50;7398197;19;1014;-70
2024/03/19 03:15:04;;;;;;;;;;;;;;;8.07;69.29;95846.81;7395813;19;1033;-68
2024/03/19 03:17:33;;;;;;;;;;;;;;;7.98;68.63;95841.97;7397546;19;964;-68
2024/03/19 03:20:03;;;;;;;;;;;;;;;7.88;68.50;95838.00;7397944;19;1036;-66
2024/03/19 03:22:32;;;;;;;;;;;;;;;7.85;68.80;95838.97;7397858;19;965;-75
2024/03/19 03:25:00;;;;;;;;;;;;;;;7.84;68.72;95848.56;7397228;19;1363;-71
2024/03/19 03:27:29;;;;;;;;;;;;;;;7.76;68.74;95840.19;7397645;19;953;-66
2024/03/19 03:29:58;;;;;;;;;;;;;;;7.73;68.62;95839.47;7395334;19;1846;-66
2024/03/19 03:32:29;;;;;;;;;;;;;;;7.71;68.43;95836.91;7397417;19;1024;-69
2024/03/19 03:34:58;;;;;;;;;;;;;;;7.71;68.25;95842.13;7396905;19;1107;-64
2024/03/19 03:37:26;;;;;;;;;;;;;;;7.64;68.03;95833.69;7397203;19;1920;-66
2024/03/19 03:39:56;;;;;;;;;;;;;;;7.43;68.60;95833.56;7397039;19;1986;-68
2024/03/19 03:42:24;;;;;;;;;;;;;;;7.27;69.33;95838.50;7397289;19;1044;-73
2024/03/19 03:44:53;;;;;;;;;;;;;;;7.17;69.82;95835.34;7396903;19;1880;-69
2024/03/19 03:47:21;;;;;;;;;;;;;;;7.10;69.63;95833.06;7397096;19;1040;-73
2024/03/19 03:49:52;;;;;;;;;;;;;;;7.10;69.86;95833.88;7395049;19;1861;-69
2024/03/19 03:52:21;;;;;;;;;;;;;;;7.13;69.41;95840.75;7396470;19;1127;-72
2024/03/19 03:54:50;;;;;;;;;;;;;;;7.13;69.35;95835.56;7396302;19;912;-71
2024/03/19 03:57:18;;;;;;;;;;;;;;;7.06;69.45;95842.69;7396622;19;1815;-68
2024/03/19 03:59:47;;;;;;;;;;;;;;;7.00;69.68;95837.72;7396421;19;1854;-73
2024/03/19 04:02:16;;;;;;;;;;;;;;;7.00;69.81;95837.72;7396021;19;1014;-70
2024/03/19 04:04:44;;;;;;;;;;;;;;;7.03;69.71;95840.22;7396209;19;1819;-67
2024/03/19 04:07:16;;;;;;;;;;;;;;;7.01;69.95;95839.44;7396274;19;1817;-69
2024/03/19 04:09:44;;;;;;;;;;;;;;;6.99;70.06;95838.63;7395038;19;1847;-70
2024/03/19 04:12:13;;;;;;;;;;;;;;;7.01;70.07;95842.03;7394185;19;1807;-69
2024/03/19 04:14:41;;;;;;;;;;;;;;;6.94;70.36;95828.38;7395821;19;1063;-68
2024/03/19 04:17:12;;;;;;;;;;;;;;;6.94;70.47;95834.44;7395788;19;1831;-65
2024/03/19 04:19:40;;;;;;;;;;;;;;;6.98;70.25;95842.97;7395957;19;1048;-69
2024/03/19 04:22:09;;;;;;;;;;;;;;;6.97;70.51;95846.47;7395698;19;887;-73
2024/03/19 04:24:40;;;;;;;;;;;;;;;6.92;71.22;95837.97;7395727;19;1033;-67
2024/03/19 04:27:08;;;;;;;;;;;;;;;6.84;70.85;95838.25;7394798;19;1021;-66
2024/03/19 04:29:37;;;;;;;;;;;;;;;6.80;71.07;95839.25;7394513;19;1845;-69
2024/03/19 04:32:07;;;;;;;;;;;;;;;6.78;71.12;95846.25;7395467;19;1904;-68
2024/03/19 04:34:35;;;;;;;;;;;;;;;6.82;71.30;95848.72;7395024;19;1148;-64
2024/03/19 04:37:04;;;;;;;;;;;;;;;6.87;70.27;95858.97;7395296;19;1842;-74
2024/03/19 04:39:32;;;;;;;;;;;;;;;6.83;69.86;95852.13;7394848;19;1136;-73
2024/03/19 04:42:03;;;;;;;;;;;;;;;6.77;70.31;95857.56;7395139;19;1810;-65
2024/03/19 04:44:32;;;;;;;;;;;;;;;6.80;70.21;95863.50;7394674;19;942;-65
2024/03/19 04:47:01;;;;;;;;;;;;;;;6.83;70.00;95855.59;7395032;19;1922;-68
2024/03/19 04:49:30;;;;;;;;;;;;;;;6.88;69.97;95859.78;7393696;19;1856;-68
2024/03/19 04:51:59;;;;;;;;;;;;;;;6.90;69.95;95863.19;7394699;19;1021;-65
2024/03/19 04:54:27;;;;;;;;;;;;;;;6.81;71.20;95866.97;7394959;19;1711;-72
2024/03/19 04:56:56;;;;;;;;;;;;;;;6.82;71.66;95871.25;7394855;19;1920;-70
2024/03/19 04:59:27;;;;;;;;;;;;;;;6.90;71.94;95874.47;7394417;19;1036;-72
2024/03/19 05:01:56;;;;;;;;;;;;;;;6.99;71.39;95867.22;7394390;19;1061;-70
2024/03/19 05:04:24;;;;;;;;;;;;;;;7.00;71.72;95877.59;7394506;19;1897;-64
2024/03/19 05:06:53;;;;;;;;;;;;;;;7.01;71.69;95868.88;7394501;19;1932;-68
2024/03/19 05:09:22;;;;;;;;;;;;;;;7.08;71.78;95872.94;7393601;19;1839;-71
2024/03/19 05:11:50;;;;;;;;;;;;;;;7.15;72.46;95872.75;7392409;19;1144;-71
2024/03/19 05:14:19;;;;;;;;;;;;;;;7.19;73.51;95876.94;7393937;19;1119;-71
2024/03/19 05:16:50;;;;;;;;;;;;;;;7.27;73.93;95887.06;7393910;19;1149;-64
2024/03/19 05:19:21;;;;;;;;;;;;;;;7.40;74.19;95888.34;7394264;19;1074;-70
2024/03/19 05:21:50;;;;;;;;;;;;;;;7.55;73.68;95889.53;7390373;19;1669;-69
2024/03/19 05:24:19;;;;;;;;;;;;;;;7.70;73.59;95892.47;7393912;19;1851;-73
2024/03/19 05:26:47;;;;;;;;;;;;;;;7.78;73.91;95898.25;7393680;19;1967;-67
2024/03/19 05:29:16;;;;;;;;;;;;;;;7.88;73.92;95897.91;7392932;19;1837;-74
2024/03/19 05:31:45;;;;;;;;;;;;;;;7.97;73.54;95893.22;7393820;19;883;-70
2024/03/19 05:34:16;;;;;;;;;;;;;;;8.04;73.78;95895.59;7393847;19;1067;-73
2024/03/19 05:36:45;;;;;;;;;;;;;;;8.08;73.80;95898.03;7393401;19;1017;-72
2024/03/19 05:39:15;;;;;;;;;;;;;;;8.13;73.77;95895.22;7396189;19;1043;-67
2024/03/19 05:41:44;;;;;;;;;;;;;;;8.18;73.41;95898.50;7401094;19;1881;-72
2024/03/19 05:44:12;;;;;;;;;;;;;;;8.29;73.10;95894.63;7400996;19;1914;-71
2024/03/19 05:46:41;;;;;;;;;;;;;;;8.35;72.32;95897.00;7400891;19;1944;-68
2024/03/19 05:49:10;;;;;;;;;;;;;;;8.42;72.47;95898.44;7400262;19;1851;-65
2024/03/19 05:51:42;;;;;;;;;;;;;;;8.51;72.97;95892.00;7400384;19;1242;-66
2024/03/19 05:54:11;;;;;;;;;;;;;;;8.61;73.16;95892.50;7400302;19;1018;-66
2024/03/19 05:56:40;;;;;;;;;;;;;;;8.69;72.90;95902.63;7400682;19;1063;-65
2024/03/19 05:59:09;;;;;;;;;;;;;;;8.78;72.60;95901.41;7400879;19;1733;-66
2024/03/19 06:01:37;;;;;;;;;;;;;;;8.83;72.43;95902.09;7400037;19;1124;-69
2024/03/19 06:04:06;;;;;;;;;;;;;;;8.93;72.02;95906.00;7400273;19;2305;-74
2024/03/19 06:06:35;;;;;;;;;;;;;;;9.00;71.74;95900.53;7400355;19;1915;-67
2024/03/19 06:09:06;;;;;;;;;;;;;;;9.12;72.33;95899.19;7399723;19;1834;-62
2024/03/19 06:11:35;;;;;;;;;;;;;;;9.24;72.12;95898.63;7397939;19;1152;-65
2024/03/19 06:14:03;;;;;;;;;;;;;;;9.39;71.73;95894.50;7400255;19;1050;-69
2024/03/19 06:16:33;;;;;;;;;;;;;;;9.52;70.31;95901.81;7399553;19;1073;-71
2024/03/19 06:19:02;;;;;;;;;;;;;;;9.60;69.11;95905.78;7399398;19;1050;-70
2024/03/19 06:21:31;;;;;;;;;;;;;;;9.78;69.17;95902.44;7399855;19;1063;-70
2024/03/19 06:23:59;;;;;;;;;;;;;;;9.88;69.00;95902.84;7399768;19;1063;-68
2024/03/19 06:26:30;;;;;;;;;;;;;;;9.98;68.83;95904.13;7399511;19;1826;-69
2024/03/19 06:28:59;;;;;;;;;;;;;;;10.08;67.59;95909.75;7398951;19;1879;-73
2024/03/19 06:31:28;;;;;;;;;;;;;;;10.20;67.30;95910.97;7399044;19;1124;-68
2024/03/19 06:33:56;;;;;;;;;;;;;;;10.35;66.63;95912.00;7399346;19;967;-66
2024/03/19 06:36:25;;;;;;;;;;;;;;;10.47;65.84;95916.69;7398785;19;1057;-65
2024/03/19 06:38:53;;;;;;;;;;;;;;;10.65;65.78;95916.72;7399207;19;1922;-69
2024/03/19 06:41:22;;;;;;;;;;;;;;;10.85;65.57;95918.41;7398928;19;1822;-67
2024/03/19 06:43:53;;;;;;;;;;;;;;;11.16;65.58;95925.63;7398629;19;1127;-67
2024/03/19 06:46:21;;;;;;;;;;;;;;;11.47;65.78;95927.53;7398587;19;1160;-70
2024/03/19 06:48:50;;;;;;;;;;;;;;;11.53;67.65;95928.97;7398859;19;1892;-67
2024/03/19 06:51:19;;;;;;;;;;;;;;;12.01;67.18;95930.88;7396172;19;1862;-67
2024/03/19 06:53:47;;;;;;;;;;;;;;;12.78;64.17;95938.13;7398318;19;1029;-66
2024/03/19 06:56:16;;;;;;;;;;;;;;;13.32;60.57;95938.59;7398504;19;1920;-67
2024/03/19 06:58:44;;;;;;;;;;;;;;;13.75;57.44;95938.69;7398390;19;1937;-65
2024/03/19 07:01:16;;;;;;;;;;;;;;;14.25;56.85;95940.94;7398035;19;1088;-67
2024/03/19 07:03:45;;;;;;;;;;;;;;;14.44;55.88;95934.50;7398448;19;1026;-67
2024/03/19 07:06:13;;;;;;;;;;;;;;;14.84;54.06;95935.56;7397946;19;1084;-69
2024/03/19 07:08:47;;;;;;;;;;;;;;;15.16;49.68;95943.13;7397870;19;1130;-67
2024/03/19 07:11:16;;;;;;;;;;;;;;;15.66;46.19;95945.94;7395487;19;1854;-66
2024/03/19 07:13:44;;;;;;;;;;;;;;;16.23;45.59;95944.81;7397683;19;1152;-71
2024/03/19 07:16:13;;;;;;;;;;;;;;;16.35;44.71;95935.19;7397673;19;1022;-70
2024/03/19 07:18:44;;;;;;;;;;;;;;;16.26;44.27;95948.06;7398049;19;1011;-68
2024/03/19 07:21:13;;;;;;;;;;;;;;;16.12;46.51;95943.78;7397539;19;1103;-64
2024/03/19 07:23:41;;;;;;;;;;;;;;;15.94;46.34;95948.50;7397520;19;1002;-67
2024/03/19 07:26:10;;;;;;;;;;;;;;;15.83;45.78;95946.59;7397757;19;1047;-70
2024/03/19 07:28:39;;;;;;;;;;;;;;;15.44;47.76;95946.56;7397202;19;1022;-69
2024/03/19 07:31:08;;;;;;;;;;;;;;;15.15;48.52;95949.34;7395533;19;1845;-64
2024/03/19 07:33:38;;;;;;;;;;;;;;;15.06;49.14;95948.19;7397839;19;1280;-66
2024/03/19 07:36:09;;;;;;;;;;;;;;;15.02;48.45;95947.53;7397084;19;956;-67
2024/03/19 07:38:40;;;;;;;;;;;;;;;15.00;50.12;95946.78;7396952;19;1065;-67
2024/03/19 07:41:09;;;;;;;;;;;;;;;14.99;50.45;95952.16;7396886;19;1077;-64
2024/03/19 07:43:37;;;;;;;;;;;;;;;15.38;49.77;95950.44;7396787;19;1127;-65
2024/03/19 07:46:06;;;;;;;;;;;;;;;15.76;48.13;95953.22;7397083;19;1029;-67
2024/03/19 07:48:35;;;;;;;;;;;;;;;15.93;48.06;95962.63;7396574;19;1053;-66
2024/03/19 07:51:03;;;;;;;;;;;;;;;16.30;47.64;95959.25;7395544;19;1845;-67
2024/03/19 07:53:34;;;;;;;;;;;;;;;16.34;45.54;95957.25;7397097;19;1705;-68
2024/03/19 07:56:03;;;;;;;;;;;;;;;16.13;45.30;95958.63;7396336;19;1092;-68
2024/03/19 07:58:32;;;;;;;;;;;;;;;15.94;46.30;95958.19;7396148;19;1030;-69
2024/03/19 08:01:00;;;;;;;;;;;;;;;15.76;45.87;95962.00;7395739;19;2059;-66
2024/03/19 08:03:29;;;;;;;;;;;;;;;15.50;46.48;95956.69;7395641;19;1935;-68
2024/03/19 08:06:00;;;;;;;;;;;;;;;15.16;46.81;95956.31;7396528;19;1031;-65
2024/03/19 08:08:28;;;;;;;;;;;;;;;15.00;47.32;95954.69;7396392;19;963;-72
2024/03/19 08:11:00;;;;;;;;;;;;;;;14.89;47.83;95952.75;7394644;19;1860;-68
2024/03/19 08:13:29;;;;;;;;;;;;;;;14.90;47.81;95953.59;7396198;19;1033;-67
2024/03/19 08:15:57;;;;;;;;;;;;;;;14.87;49.20;95948.53;7395646;19;1836;-68
2024/03/19 08:18:26;;;;;;;;;;;;;;;14.78;50.34;95956.06;7395899;19;961;-66
2024/03/19 08:20:54;;;;;;;;;;;;;;;14.70;52.91;95958.34;7395820;19;1835;-66
2024/03/19 08:23:23;;;;;;;;;;;;;;;14.62;55.39;95956.19;7395695;19;1933;-66
2024/03/19 08:25:51;;;;;;;;;;;;;;;14.53;58.34;95954.97;7395525;19;1049;-69
2024/03/19 08:28:22;;;;;;;;;;;;;;;14.40;59.63;95954.06;7395834;19;968;-67
2024/03/19 08:30:51;;;;;;;;;;;;;;;14.33;62.04;95958.03;7394906;19;1846;-68
2024/03/19 08:33:19;;;;;;;;;;;;;;;14.18;63.34;95965.91;7395795;19;1063;-67
2024/03/19 08:35:49;;;;;;;;;;;;;;;14.08;64.48;95968.28;7395633;19;1060;-69
2024/03/19 08:38:17;;;;;;;;;;;;;;;13.93;65.60;95963.97;7395505;19;934;-67
2024/03/19 08:40:46;;;;;;;;;;;;;;;13.80;67.01;95955.97;7395418;19;1043;-67
2024/03/19 08:43:14;;;;;;;;;;;;;;;13.67;65.73;95964.59;7395118;19;1931;-70
2024/03/19 08:45:45;;;;;;;;;;;;;;;13.55;66.74;95963.53;7394995;19;1813;-66
2024/03/19 08:48:14;;;;;;;;;;;;;;;13.46;67.71;95967.50;7395212;19;949;-69
2024/03/19 08:50:42;;;;;;;;;;;;;;;13.38;68.56;95967.13;7394343;19;1853;-66
2024/03/19 08:53:10;;;;;;;;;;;;;;;13.32;69.05;95970.09;7395399;19;1683;-66
2024/03/19 08:55:40;;;;;;;;;;;;;;;13.11;67.77;95979.16;7395177;19;1013;-70
2024/03/19 08:58:08;;;;;;;;;;;;;;;12.95;65.90;95980.94;7395253;19;969;-69
2024/03/19 09:00:37;;;;;;;;;;;;;;;12.70;64.38;95982.34;7394784;19;1895;-69
2024/03/19 09:03:10;;;;;;;;;;;;;;;12.55;66.34;95976.16;7394312;19;1060;-64
2024/03/19 09:05:38;;;;;;;;;;;;;;;12.46;65.75;95982.75;7394317;19;1215;-66
2024/03/19 09:08:07;;;;;;;;;;;;;;;12.29;66.67;95979.25;7394710;19;1021;-70
2024/03/19 09:10:36;;;;;;;;;;;;;;;12.33;67.85;95988.66;7393663;19;1845;-67
2024/03/19 09:13:04;;;;;;;;;;;;;;;12.40;68.74;95991.78;7397009;19;1258;-67
2024/03/19 09:15:33;;;;;;;;;;;;;;;12.45;69.69;95986.28;7401707;19;1110;-68
2024/03/19 09:18:01;;;;;;;;;;;;;;;12.48;70.21;95994.84;7401839;19;1823;-66
2024/03/19 09:20:32;;;;;;;;;;;;;;;12.42;68.88;95992.56;7401821;19;1933;-66
2024/03/19 09:23:01;;;;;;;;;;;;;;;12.49;71.19;95987.81;7401836;19;971;-68
2024/03/19 09:25:30;;;;;;;;;;;;;;;12.57;73.81;95975.13;7401820;19;1034;-67
2024/03/19 09:27:58;;;;;;;;;;;;;;;12.51;71.58;95980.72;7401534;19;1902;-67
2024/03/19 09:30:27;;;;;;;;;;;;;;;12.55;73.10;95979.59;7400595;19;1857;-69
2024/03/19 09:32:55;;;;;;;;;;;;;;;12.72;72.65;95977.81;7401507;19;1091;-73
2024/03/19 09:35:25;;;;;;;;;;;;;;;12.97;71.92;95979.06;7401380;19;1749;-69
2024/03/19 09:37:58;;;;;;;;;;;;;;;12.97;73.52;95977.28;7400938;19;1081;-66
2024/03/19 09:40:27;;;;;;;;;;;;;;;13.06;71.62;95973.28;7400908;19;1084;-73
2024/03/19 09:42:55;;;;;;;;;;;;;;;13.09;71.41;95974.91;7400855;19;1238;-70
2024/03/19 09:45:28;;;;;;;;;;;;;;;13.09;67.11;95983.63;7401594;19;1756;-65
2024/03/19 09:47:57;;;;;;;;;;;;;;;13.13;68.81;95976.44;7401145;19;1017;-70
2024/03/19 09:50:26;;;;;;;;;;;;;;;12.97;67.93;95984.31;7400136;19;1829;-70
2024/03/19 09:52:57;;;;;;;;;;;;;;;12.88;66.69;95976.03;7400796;19;1125;-66
2024/03/19 09:55:27;;;;;;;;;;;;;;;12.92;67.45;95984.59;7400380;19;1068;-69
2024/03/19 09:57:58;;;;;;;;;;;;;;;12.93;66.57;95977.56;7400163;19;1124;-70
2024/03/19 10:00:28;;;;;;;;;;;;;;;13.02;66.57;95982.28;7400718;19;1022;-71
2024/03/19 10:02:57;;;;;;;;;;;;;;;13.11;66.97;95983.53;7400607;19;952;-67
2024/03/19 10:05:25;;;;;;;;;;;;;;;13.09;64.66;95988.03;7400250;19;1818;-66
2024/03/19 10:07:54;;;;;;;;;;;;;;;12.59;57.19;95998.66;7400303;19;1727;-72
2024/03/19 10:10:27;;;;;;;;;;;;;;;12.59;56.60;95989.03;7399679;19;1849;-69
2024/03/19 10:12:56;;;;;;;;;;;;;;;12.73;58.14;95990.00;7399746;19;1045;-68
2024/03/19 10:15:26;;;;;;;;;;;;;;;12.66;54.85;95991.28;7399669;19;1005;-68
2024/03/19 10:17:57;;;;;;;;;;;;;;;12.63;52.36;95987.91;7399516;19;1154;-70
2024/03/19 10:20:27;;;;;;;;;;;;;;;12.50;55.01;95995.59;7399472;19;1041;-64
2024/03/19 10:22:55;;;;;;;;;;;;;;;12.53;54.60;95988.50;7399419;19;1247;-69
2024/03/19 10:25:26;;;;;;;;;;;;;;;12.62;54.30;95988.00;7398296;19;1843;-66
2024/03/19 10:27:55;;;;;;;;;;;;;;;12.70;54.07;95985.78;7399657;19;1053;-67
2024/03/19 10:30:24;;;;;;;;;;;;;;;12.70;56.03;95987.59;7399374;19;1841;-70
2024/03/19 10:32:52;;;;;;;;;;;;;;;12.83;54.54;95983.34;7399567;19;972;-67
2024/03/19 10:35:23;;;;;;;;;;;;;;;12.92;51.92;95992.47;7399586;19;959;-65
2024/03/19 10:37:52;;;;;;;;;;;;;;;12.83;54.92;95982.47;7399764;19;1667;-69
2024/03/19 10:40:22;;;;;;;;;;;;;;;12.75;52.32;95986.38;7399351;19;1019;-69
2024/03/19 10:42:53;;;;;;;;;;;;;;;12.73;53.22;95988.25;7398902;19;1025;-67
2024/03/19 10:45:25;;;;;;;;;;;;;;;12.70;51.42;95985.78;7398766;19;1127;-69
2024/03/19 10:47:55;;;;;;;;;;;;;;;12.69;52.18;95991.13;7398560;19;1089;-67
2024/03/19 10:50:24;;;;;;;;;;;;;;;12.70;54.35;95983.16;7398949;19;973;-70
2024/03/19 10:52:57;;;;;;;;;;;;;;;12.72;54.69;95978.69;7398842;19;1002;-71
2024/03/19 10:55:26;;;;;;;;;;;;;;;12.63;57.28;95974.78;7398833;19;956;-67
2024/03/19 10:58:02;;;;;;;;;;;;;;;12.53;59.50;95972.75;7398138;19;1049;-67
2024/03/19 11:00:31;;;;;;;;;;;;;;;12.43;60.57;95973.25;7398219;19;1096;-65
2024/03/19 11:03:00;;;;;;;;;;;;;;;12.41;59.41;95967.25;7398359;19;1900;-67
2024/03/19 11:05:29;;;;;;;;;;;;;;;12.26;57.06;95984.66;7397996;19;1049;-65
2024/03/19 11:07:55;;;;;;;;;;;;;;;12.03;55.35;95978.84;7398276;19;1630;-65
2024/03/19 11:10:35;;;;;;;;;;;;;;;11.96;54.48;95980.94;7397382;19;1112;-66
2024/03/19 11:13:09;;;;;;;;;;;;;;;11.81;53.59;95984.34;7397680;19;1172;-69
2024/03/19 11:15:38;;;;;;;;;;;;;;;11.68;51.84;95981.53;7397765;19;1040;-69
2024/03/19 11:18:06;;;;;;;;;;;;;;;11.52;51.42;95982.31;7398049;19;1008;-68
2024/03/19 11:20:38;;;;;;;;;;;;;;;11.52;50.68;95986.69;7397551;19;1065;-69
2024/03/19 11:23:08;;;;;;;;;;;;;;;11.27;52.49;95988.78;7397430;19;1092;-69
2024/03/19 11:25:36;;;;;;;;;;;;;;;11.18;53.85;95978.75;7397485;19;1045;-66
2024/03/19 11:28:20;;;;;;;;;;;;;;;11.11;53.82;95983.47;7397564;19;1684;-66
2024/03/19 11:30:49;;;;;;;;;;;;;;;10.93;54.89;95982.59;7397285;19;1867;-68
2024/03/19 11:33:18;;;;;;;;;;;;;;;10.79;53.45;95976.25;7397067;19;1120;-69
2024/03/19 11:35:48;;;;;;;;;;;;;;;10.67;54.09;95979.44;7396590;19;1009;-69
2024/03/19 11:38:17;;;;;;;;;;;;;;;10.55;54.32;95978.25;7396180;19;1038;-66
2024/03/19 11:40:46;;;;;;;;;;;;;;;10.46;55.35;95974.28;7397303;19;1016;-65
2024/03/19 11:43:17;;;;;;;;;;;;;;;10.32;55.45;95970.53;7396605;19;1144;-66
2024/03/19 11:45:46;;;;;;;;;;;;;;;10.25;54.15;95969.13;7397121;19;1026;-69
2024/03/19 11:48:19;;;;;;;;;;;;;;;10.30;56.54;95969.72;7396551;19;1033;-68
2024/03/19 11:50:53;;;;;;;;;;;;;;;10.32;56.11;95978.38;7396335;19;1837;-66
2024/03/19 11:53:22;;;;;;;;;;;;;;;10.58;56.63;95980.72;7396377;19;1100;-70
2024/03/19 11:55:51;;;;;;;;;;;;;;;10.80;57.45;95977.94;7397120;19;1702;-69
2024/03/19 11:58:22;;;;;;;;;;;;;;;10.80;55.31;95979.69;7396595;19;1839;-70
2024/03/19 12:00:51;;;;;;;;;;;;;;;10.83;54.60;95980.41;7396090;19;1509;-68
2024/03/19 12:03:21;;;;;;;;;;;;;;;10.94;55.11;95974.66;7396076;19;1033;-71
2024/03/19 12:05:47;;;;;;;;;;;;;;;11.02;58.11;95969.06;7395989;19;1315;-64
2024/03/19 12:08:17;;;;;;;;;;;;;;;11.10;57.12;95976.50;7395851;19;1124;-68
2024/03/19 12:10:47;;;;;;;;;;;;;;;10.93;56.29;95985.19;7395252;19;1101;-69
2024/03/19 12:13:15;;;;;;;;;;;;;;;10.81;57.40;95979.63;7393976;19;1863;-65
2024/03/19 12:15:48;;;;;;;;;;;;;;;10.77;58.69;95985.91;7395784;19;1013;-69
2024/03/19 12:18:16;;;;;;;;;;;;;;;10.60;58.53;95989.34;7396044;19;997;-67
2024/03/19 12:20:45;;;;;;;;;;;;;;;10.55;58.76;95992.19;7395949;19;1834;-68
2024/03/19 12:23:15;;;;;;;;;;;;;;;10.47;59.64;95989.91;7395938;19;1636;-69
2024/03/19 12:25:43;;;;;;;;;;;;;;;10.33;60.41;95980.06;7395526;19;1041;-69
2024/03/19 12:28:13;;;;;;;;;;;;;;;10.21;62.68;95980.63;7395819;19;1022;-66
2024/03/19 12:30:42;;;;;;;;;;;;;;;10.02;60.75;95984.06;7395810;19;1005;-70
2024/03/19 12:33:20;;;;;;;;;;;;;;;9.70;59.25;95984.56;7393515;19;1846;-67
2024/03/19 12:35:51;;;;;;;;;;;;;;;9.75;61.16;95981.75;7395057;19;1127;-68
2024/03/19 12:38:20;;;;;;;;;;;;;;;9.67;59.61;95994.31;7394935;19;1213;-69
2024/03/19 12:40:48;;;;;;;;;;;;;;;9.40;58.93;95992.81;7395448;19;1024;-70
2024/03/19 12:43:17;;;;;;;;;;;;;;;9.20;58.71;95988.41;7395404;19;1019;-67
2024/03/19 12:45:46;;;;;;;;;;;;;;;8.95;60.86;95981.59;7394844;19;1096;-69
2024/03/19 12:48:17;;;;;;;;;;;;;;;8.81;59.53;95984.75;7394516;19;981;-66
2024/03/19 12:50:45;;;;;;;;;;;;;;;8.69;61.81;95981.72;7395274;19;1024;-63
2024/03/19 12:53:15;;;;;;;;;;;;;;;8.56;60.12;95983.97;7392952;19;1844;-66
2024/03/19 12:55:46;;;;;;;;;;;;;;;8.63;61.20;95986.31;7394819;19;1823;-67
2024/03/19 12:58:14;;;;;;;;;;;;;;;8.49;60.63;95995.47;7394878;19;1000;-68
2024/03/19 13:00:43;;;;;;;;;;;;;;;8.42;61.82;95986.22;7394608;19;1815;-65
2024/03/19 13:03:11;;;;;;;;;;;;;;;8.39;63.13;95991.53;7394276;19;1041;-68
2024/03/19 13:05:43;;;;;;;;;;;;;;;8.18;61.80;95994.03;7394222;19;1965;-65
2024/03/19 13:08:12;;;;;;;;;;;;;;;8.08;62.24;95993.53;7394190;19;1041;-69
2024/03/19 13:10:41;;;;;;;;;;;;;;;7.86;61.74;95996.94;7393559;19;1892;-65
2024/03/19 13:13:09;;;;;;;;;;;;;;;7.91;63.41;95999.34;7392422;19;1845;-69